Gaz Unity — HOEJ — position and weather

sailwx.info

Track history (hours):
 
Tides and Currents Weather Stations Pressure Air Temp Water Temp Dewpoint Dewpoint Depression Visibility Wind Speed Wind Dir Waves Ship Positions

Gaz Unity

Last reported at 2016-Aug-28 13:33 UTC. Time now 2016-Aug-28 14:09 UTC.
Position N 35°31' E 014°59'.

; draft 9.8 m.

Type: Ship (hazmat cat C). MMSI: 353956000.

Date/timePositionNaut miles runAvg speedWind from/ knotsBaromVisibWave heightAir tempDewpointWater temp
2016-Aug-28 13:33N 35°31' E 014°59'1 0.5
2016-Aug-28 12:28N 35°31' E 014°58'0 0.5
2016-Aug-28 11:33N 35°32' E 014°58'0 0.4
2016-Aug-28 10:33N 35°32' E 014°58'0 0.4
2016-Aug-28 09:33N 35°32' E 014°58'2 0.3
2016-Aug-28 03:22N 35°34' E 014°58'0 0.4
2016-Aug-28 02:18N 35°34' E 014°59'0 0.5
2016-Aug-28 01:33N 35°34' E 014°59'1 0.5
2016-Aug-28 00:33N 35°35' E 014°60'1 0.6
2016-Aug-27 23:33N 35°35' E 015°00'1 0.6
2016-Aug-27 22:33N 35°36' E 015°01'1 0.7
2016-Aug-27 21:33N 35°36' E 015°01'1 0.7
2016-Aug-27 20:33N 35°37' E 015°01'1 0.5
2016-Aug-27 19:33N 35°37' E 015°01'1 0.3
2016-Aug-27 16:22N 35°38' E 015°01'0 0.2
2016-Aug-27 15:33N 35°38' E 015°01'3 3.1
2016-Aug-27 14:33N 35°38' E 015°05'4 4.0
2016-Aug-27 13:32N 35°38' E 015°10'1 0.6
2016-Aug-27 12:33N 35°37' E 015°11'1 0.9
2016-Aug-27 11:33N 35°37' E 015°10'  
2016-Aug-23 00:32N 35°36' E 015°01'0 0.0
2016-Aug-22 21:29N 35°36' E 015°01'0 0.0
2016-Aug-22 20:32N 35°36' E 015°01'0 0.0
2016-Aug-22 18:29N 35°36' E 015°01'0 0.0
2016-Aug-22 17:32N 35°36' E 015°01'0 0.0
2016-Aug-22 16:32N 35°36' E 015°01'0 0.0
2016-Aug-22 15:32N 35°36' E 015°01'0 0.0
2016-Aug-22 14:23N 35°36' E 015°01'0 0.0
2016-Aug-22 13:29N 35°36' E 015°01'0 0.0
2016-Aug-22 12:32N 35°36' E 015°01'0 0.0
2016-Aug-22 11:32N 35°36' E 015°01'0 0.0
2016-Aug-22 10:29N 35°36' E 015°01'0 0.0
2016-Aug-22 09:14N 35°36' E 015°01'0 0.0
2016-Aug-22 08:26N 35°36' E 015°01'0 0.0
2016-Aug-22 07:32N 35°36' E 015°01'0 0.0
2016-Aug-22 06:23N 35°36' E 015°01'0 0.0
2016-Aug-22 05:23N 35°36' E 015°01'0 0.0
2016-Aug-22 04:32N 35°36' E 015°01'0 0.0
2016-Aug-22 03:29N 35°36' E 015°01'0 0.0
2016-Aug-22 02:29N 35°36' E 015°01'0 0.0
2016-Aug-22 01:32N 35°36' E 015°01'0 0.0
2016-Aug-22 00:29N 35°36' E 015°01'0 0.0
2016-Aug-21 23:32N 35°36' E 015°01'0 0.0
2016-Aug-21 22:32N 35°36' E 015°01'0 0.0
2016-Aug-21 21:32N 35°36' E 015°01'0 0.0
2016-Aug-21 20:32N 35°36' E 015°01'0 0.0
2016-Aug-21 19:32N 35°36' E 015°01'0 0.0
2016-Aug-21 18:29N 35°36' E 015°01'0 0.0
2016-Aug-21 17:32N 35°36' E 015°01'0 0.0
2016-Aug-21 16:32N 35°36' E 015°01'0 0.1
2016-Aug-21 15:32N 35°36' E 015°01'0 0.0
2016-Aug-21 14:17N 35°36' E 015°01'0 0.0
2016-Aug-21 13:32N 35°36' E 015°01'0 0.1
2016-Aug-21 12:32N 35°36' E 015°01'0 0.1
2016-Aug-21 11:29N 35°36' E 015°01'0 0.0
2016-Aug-21 10:29N 35°36' E 015°01'0 0.0
2016-Aug-21 09:32N 35°36' E 015°01'0 0.0
2016-Aug-21 08:29N 35°36' E 015°01'0 0.0
2016-Aug-21 07:32N 35°36' E 015°01'0 0.0
2016-Aug-21 06:32N 35°36' E 015°01'0 0.0
2016-Aug-21 05:32N 35°36' E 015°01'0 0.0
2016-Aug-21 04:23N 35°36' E 015°01'0 0.0
2016-Aug-21 02:32N 35°36' E 015°01'0 0.0
2016-Aug-21 01:29N 35°36' E 015°01'0 0.0
2016-Aug-21 00:32N 35°36' E 015°01'0 0.0
2016-Aug-20 23:29N 35°36' E 015°01'0 0.1
2016-Aug-20 22:32N 35°36' E 015°01'0 0.0
2016-Aug-20 21:29N 35°36' E 015°01'0 0.0
2016-Aug-20 20:32N 35°36' E 015°01'0 0.0
2016-Aug-20 19:32N 35°36' E 015°01'0 0.0
2016-Aug-20 18:29N 35°36' E 015°01'0 0.2
2016-Aug-20 17:30N 35°36' E 015°01'2 2.3
2016-Aug-20 16:33N 35°39' E 015°01'0 0.0
2016-Aug-20 15:33N 35°39' E 015°01'0 0.1
2016-Aug-20 14:30N 35°39' E 015°01'0 0.0
2016-Aug-20 13:33N 35°39' E 015°01'0 0.0
2016-Aug-20 12:33N 35°38' E 015°01'0 0.0
2016-Aug-20 11:33N 35°38' E 015°01'0 0.1
2016-Aug-20 10:33N 35°38' E 015°01'0 0.0
2016-Aug-20 09:33N 35°38' E 015°01'0 0.1
2016-Aug-20 08:33N 35°38' E 015°01'2 1.6
2016-Aug-20 07:33N 35°40' E 014°60'5 5.2
2016-Aug-20 06:33N 35°45' E 014°59'1 0.4
2016-Aug-20 04:24N 35°46' E 014°59'0 0.0
2016-Aug-20 03:33N 35°46' E 014°59'0 0.1
2016-Aug-20 02:33N 35°46' E 014°59'0 0.0
2016-Aug-20 01:33N 35°46' E 014°59'0 0.0
2016-Aug-20 00:33N 35°46' E 014°59'0 0.0
2016-Aug-19 23:33N 35°46' E 014°59'0 0.0
2016-Aug-19 22:33N 35°46' E 014°59'0 0.0
2016-Aug-19 21:33N 35°46' E 014°59'0 0.0
2016-Aug-19 20:30N 35°46' E 014°59'0 0.0
2016-Aug-19 19:33N 35°46' E 014°59'0 0.0
2016-Aug-19 18:33N 35°46' E 014°59'0 0.1
2016-Aug-19 17:30N 35°46' E 014°59'0 0.0
2016-Aug-19 16:30N 35°46' E 014°59'0 0.1
2016-Aug-19 15:30N 35°46' E 014°59'0 0.0
2016-Aug-19 14:21N 35°46' E 014°59'0 0.1
2016-Aug-19 13:30N 35°46' E 014°59'0 0.1
2016-Aug-19 12:33N 35°46' E 014°59'0 0.0
2016-Aug-19 11:33N 35°46' E 014°59'0 0.0
2016-Aug-19 10:33N 35°46' E 014°59'0 0.0
2016-Aug-19 09:24N 35°46' E 014°59'0 0.0
2016-Aug-19 08:30N 35°46' E 014°59'0 0.1
2016-Aug-19 07:33N 35°46' E 014°59'0 0.0
2016-Aug-19 06:33N 35°46' E 014°59'0 0.0
2016-Aug-19 05:33N 35°46' E 014°59'0 0.0
2016-Aug-19 04:33N 35°46' E 014°59'0 0.0
2016-Aug-19 03:27N 35°46' E 014°59'0 0.0
2016-Aug-19 00:30N 35°46' E 014°59'0 0.0
2016-Aug-18 23:33N 35°46' E 014°59'0 0.0
2016-Aug-18 22:33N 35°46' E 014°59'0 0.0
2016-Aug-18 19:30N 35°46' E 014°59'0 0.1
2016-Aug-18 17:15N 35°46' E 014°59'0 0.0
2016-Aug-18 16:24N 35°46' E 014°59'0 0.0
2016-Aug-18 15:27N 35°46' E 014°59'0 0.0
2016-Aug-18 14:09N 35°46' E 014°59'  
Track history (hours):
 
Tides and Currents Weather Stations Pressure Air Temp Water Temp Dewpoint Dewpoint Depression Visibility Wind Speed Wind Dir Waves Ship Positions

Gaz Unity

Last reported at 2016-Aug-28 13:33 UTC. Time now 2016-Aug-28 14:09 UTC.
Position N 35°31' E 014°59'.

; draft 9.8 m.

Type: Ship (hazmat cat C). MMSI: 353956000.

Date/timePositionNaut miles runAvg speedWind from/ knotsBaromVisibWave heightAir tempDewpointWater temp
2016-Aug-28 13:33N 35°31' E 014°59'1 0.5
2016-Aug-28 12:28N 35°31' E 014°58'0 0.5
2016-Aug-28 11:33N 35°32' E 014°58'0 0.4
2016-Aug-28 10:33N 35°32' E 014°58'0 0.4
2016-Aug-28 09:33N 35°32' E 014°58'2 0.3
2016-Aug-28 03:22N 35°34' E 014°58'0 0.4
2016-Aug-28 02:18N 35°34' E 014°59'0 0.5
2016-Aug-28 01:33N 35°34' E 014°59'1 0.5
2016-Aug-28 00:33N 35°35' E 014°60'1 0.6
2016-Aug-27 23:33N 35°35' E 015°00'1 0.6
2016-Aug-27 22:33N 35°36' E 015°01'1 0.7
2016-Aug-27 21:33N 35°36' E 015°01'1 0.7
2016-Aug-27 20:33N 35°37' E 015°01'1 0.5
2016-Aug-27 19:33N 35°37' E 015°01'1 0.3
2016-Aug-27 16:22N 35°38' E 015°01'0 0.2
2016-Aug-27 15:33N 35°38' E 015°01'3 3.1
2016-Aug-27 14:33N 35°38' E 015°05'4 4.0
2016-Aug-27 13:32N 35°38' E 015°10'1 0.6
2016-Aug-27 12:33N 35°37' E 015°11'1 0.9
2016-Aug-27 11:33N 35°37' E 015°10'  
2016-Aug-23 00:32N 35°36' E 015°01'0 0.0
2016-Aug-22 21:29N 35°36' E 015°01'0 0.0
2016-Aug-22 20:32N 35°36' E 015°01'0 0.0
2016-Aug-22 18:29N 35°36' E 015°01'0 0.0
2016-Aug-22 17:32N 35°36' E 015°01'0 0.0
2016-Aug-22 16:32N 35°36' E 015°01'0 0.0
2016-Aug-22 15:32N 35°36' E 015°01'0 0.0
2016-Aug-22 14:23N 35°36' E 015°01'0 0.0
2016-Aug-22 13:29N 35°36' E 015°01'0 0.0
2016-Aug-22 12:32N 35°36' E 015°01'0 0.0
2016-Aug-22 11:32N 35°36' E 015°01'0 0.0
2016-Aug-22 10:29N 35°36' E 015°01'0 0.0
2016-Aug-22 09:14N 35°36' E 015°01'0 0.0
2016-Aug-22 08:26N 35°36' E 015°01'0 0.0
2016-Aug-22 07:32N 35°36' E 015°01'0 0.0
2016-Aug-22 06:23N 35°36' E 015°01'0 0.0
2016-Aug-22 05:23N 35°36' E 015°01'0 0.0
2016-Aug-22 04:32N 35°36' E 015°01'0 0.0
2016-Aug-22 03:29N 35°36' E 015°01'0 0.0
2016-Aug-22 02:29N 35°36' E 015°01'0 0.0
2016-Aug-22 01:32N 35°36' E 015°01'0 0.0
2016-Aug-22 00:29N 35°36' E 015°01'0 0.0
2016-Aug-21 23:32N 35°36' E 015°01'0 0.0
2016-Aug-21 22:32N 35°36' E 015°01'0 0.0
2016-Aug-21 21:32N 35°36' E 015°01'0 0.0
2016-Aug-21 20:32N 35°36' E 015°01'0 0.0
2016-Aug-21 19:32N 35°36' E 015°01'0 0.0
2016-Aug-21 18:29N 35°36' E 015°01'0 0.0
2016-Aug-21 17:32N 35°36' E 015°01'0 0.0
2016-Aug-21 16:32N 35°36' E 015°01'0 0.1
2016-Aug-21 15:32N 35°36' E 015°01'0 0.0
2016-Aug-21 14:17N 35°36' E 015°01'0 0.0
2016-Aug-21 13:32N 35°36' E 015°01'0 0.1
2016-Aug-21 12:32N 35°36' E 015°01'0 0.1
2016-Aug-21 11:29N 35°36' E 015°01'0 0.0
2016-Aug-21 10:29N 35°36' E 015°01'0 0.0
2016-Aug-21 09:32N 35°36' E 015°01'0 0.0
2016-Aug-21 08:29N 35°36' E 015°01'0 0.0
2016-Aug-21 07:32N 35°36' E 015°01'0 0.0
2016-Aug-21 06:32N 35°36' E 015°01'0 0.0
2016-Aug-21 05:32N 35°36' E 015°01'0 0.0
2016-Aug-21 04:23N 35°36' E 015°01'0 0.0
2016-Aug-21 02:32N 35°36' E 015°01'0 0.0
2016-Aug-21 01:29N 35°36' E 015°01'0 0.0
2016-Aug-21 00:32N 35°36' E 015°01'0 0.0
2016-Aug-20 23:29N 35°36' E 015°01'0 0.1
2016-Aug-20 22:32N 35°36' E 015°01'0 0.0
2016-Aug-20 21:29N 35°36' E 015°01'0 0.0
2016-Aug-20 20:32N 35°36' E 015°01'0 0.0
2016-Aug-20 19:32N 35°36' E 015°01'0 0.0
2016-Aug-20 18:29N 35°36' E 015°01'0 0.2
2016-Aug-20 17:30N 35°36' E 015°01'2 2.3
2016-Aug-20 16:33N 35°39' E 015°01'0 0.0
2016-Aug-20 15:33N 35°39' E 015°01'0 0.1
2016-Aug-20 14:30N 35°39' E 015°01'0 0.0
2016-Aug-20 13:33N 35°39' E 015°01'0 0.0
2016-Aug-20 12:33N 35°38' E 015°01'0 0.0
2016-Aug-20 11:33N 35°38' E 015°01'0 0.1
2016-Aug-20 10:33N 35°38' E 015°01'0 0.0
2016-Aug-20 09:33N 35°38' E 015°01'0 0.1
2016-Aug-20 08:33N 35°38' E 015°01'2 1.6
2016-Aug-20 07:33N 35°40' E 014°60'5 5.2
2016-Aug-20 06:33N 35°45' E 014°59'1 0.4
2016-Aug-20 04:24N 35°46' E 014°59'0 0.0
2016-Aug-20 03:33N 35°46' E 014°59'0 0.1
2016-Aug-20 02:33N 35°46' E 014°59'0 0.0
2016-Aug-20 01:33N 35°46' E 014°59'0 0.0
2016-Aug-20 00:33N 35°46' E 014°59'0 0.0
2016-Aug-19 23:33N 35°46' E 014°59'0 0.0
2016-Aug-19 22:33N 35°46' E 014°59'0 0.0
2016-Aug-19 21:33N 35°46' E 014°59'0 0.0
2016-Aug-19 20:30N 35°46' E 014°59'0 0.0
2016-Aug-19 19:33N 35°46' E 014°59'0 0.0
2016-Aug-19 18:33N 35°46' E 014°59'0 0.1
2016-Aug-19 17:30N 35°46' E 014°59'0 0.0
2016-Aug-19 16:30N 35°46' E 014°59'0 0.1
2016-Aug-19 15:30N 35°46' E 014°59'0 0.0
2016-Aug-19 14:21N 35°46' E 014°59'0 0.1
2016-Aug-19 13:30N 35°46' E 014°59'0 0.1
2016-Aug-19 12:33N 35°46' E 014°59'0 0.0
2016-Aug-19 11:33N 35°46' E 014°59'0 0.0
2016-Aug-19 10:33N 35°46' E 014°59'0 0.0
2016-Aug-19 09:24N 35°46' E 014°59'0 0.0
2016-Aug-19 08:30N 35°46' E 014°59'0 0.1
2016-Aug-19 07:33N 35°46' E 014°59'0 0.0
2016-Aug-19 06:33N 35°46' E 014°59'0 0.0
2016-Aug-19 05:33N 35°46' E 014°59'0 0.0
2016-Aug-19 04:33N 35°46' E 014°59'0 0.0
2016-Aug-19 03:27N 35°46' E 014°59'0 0.0
2016-Aug-19 00:30N 35°46' E 014°59'0 0.0
2016-Aug-18 23:33N 35°46' E 014°59'0 0.0
2016-Aug-18 22:33N 35°46' E 014°59'0 0.0
2016-Aug-18 19:30N 35°46' E 014°59'0 0.1
2016-Aug-18 17:15N 35°46' E 014°59'0 0.0
2016-Aug-18 16:24N 35°46' E 014°59'0 0.0
2016-Aug-18 15:27N 35°46' E 014°59'0 0.0
2016-Aug-18 14:09N 35°46' E 014°59'  

Dump ship's entire track history